Flight Track Log - Related Links

Times and Time Zones

All times are in EDT time to prevent confusion due to time zone crossing. See the DAL6234 flight status page for this flight to view local times or setup timezone preferences in your user account.

Time Position Orientation Groundspeed Altitude Reporting Facility
EDT Latitude Longitude Course Direction KTS MPH feet Rate Location/Type
Sun 18:18:45 43.1097 -76.1292 217° Southwest 134 154 1,300  Level Boston Center
Sun 18:20:04 43.0686 -76.1722 217° Southwest 229 264 4,300 2,429 Climbing Boston Center
Sun 18:20:51 43.0328 -76.1244 136° Southeast 268 308 6,400 2,972 Climbing Boston Center
Sun 18:21:51 42.9831 -76.0478 132° Southeast 273 314 9,600 2,700 Climbing Boston Center
Sun 18:22:51 42.9275 -75.9622 132° Southeast 284 327 11,800 2,200 Climbing Boston Center
Sun 18:23:51 42.8639 -75.8594 130° Southeast 314 361 14,000 2,250 Climbing Boston Center
Sun 18:24:51 42.7961 -75.7567 132° Southeast 347 399 16,300 1,900 Climbing Boston Center
Sun 18:25:51 42.7261 -75.6483 131° Southeast 366 421 17,800 1,750 Climbing Boston Center
Sun 18:26:51 42.6481 -75.5283 131° Southeast 394 453 19,800 1,600 Climbing Boston Center
Sun 18:27:51 42.5722 -75.4089 131° Southeast 406 467 21,000 600 Climbing Boston Center
Sun 18:28:51 42.4919 -75.2783 130° Southeast 424 488 21,000  Level Boston Center
Sun 18:29:51 42.4269 -75.1319 121° Southeast 443 510 21,000  Level Boston Center
Sun 18:30:51 42.3700 -74.9778 117° Southeast 450 518 21,000 -300 Level Boston Center
Sun 18:31:51 42.3128 -74.8239 117° Southeast 456 525 20,400 -700 Descending Boston Center
Sun 18:32:51 42.2556 -74.6731 117° Southeast 456 525 19,600 -750 Descending Boston Center
Sun 18:33:51 42.2000 -74.5225 116° Southeast 456 525 18,900 -650 Descending Boston Center
Sun 18:34:51 42.1403 -74.3608 116° Southeast 451 519 18,300 -450 Descending Boston Center
Sun 18:35:51 42.0647 -74.2578 135° Southeast 426 490 18,000 -150 Descending Boston Center
Sun 18:36:51 41.9514 -74.1792 153° Southeast 420 483 18,000 -450 Level Boston Center
Sun 18:37:51 41.8564 -74.1181 154° Southeast 420 483 17,100 -1,550 Descending Boston Center
Sun 18:38:51 41.7450 -74.0483 155° Southeast 414 476 14,900 -2,250 Descending Boston Center
Sun 18:39:51 41.6478 -73.9903 156° South 395 455 12,600 -1,800 Descending Boston Center
Sun 18:40:51 41.5569 -73.9325 155° Southeast 379 436 11,300 -1,200 Descending Boston Center
Sun 18:41:51 41.4825 -73.8867 155° Southeast 326 375 10,200 -1,077 Descending Boston Center
Sun 18:42:09 41.4500 -73.8667 155° Southeast 290 334 9,900 -1,000 Descending New TRACON
Sun 18:43:09 41.3833 -73.8333 159° South 278 320 8,900 -1,200 Descending New TRACON
Sun 18:44:09 41.3167 -73.7833 151° Southeast 278 320 7,500 -1,350 Descending New TRACON
Sun 18:45:09 41.2667 -73.7167 135° Southeast 257 296 6,200 -750 Descending New TRACON
Sun 18:46:09 41.2167 -73.6833 153° Southeast 192 221 6,000 -500 Descending New TRACON
Sun 18:47:09 41.1667 -73.6500 153° Southeast 186 214 5,200 -500 Descending New TRACON
Sun 18:48:09 41.1333 -73.6000 132° Southeast 191 220 5,000 -350 Descending New TRACON
Sun 18:49:09 41.0833 -73.6333 207° Southwest 193 222 4,500 -500 Descending New TRACON
Sun 18:50:09 41.0333 -73.6667 207° Southwest 194 223 4,000 -250 Descending New TRACON
Sun 18:51:09 40.9833 -73.7000 207° Southwest 189 217 4,000 -200 Level New TRACON
Sun 18:52:09 40.9500 -73.7333 217° Southwest 166 191 3,600 -450 Descending New TRACON
Sun 18:53:09 40.9167 -73.7667 217° Southwest 155 178 3,100 -650 Descending New TRACON
Sun 18:54:09 40.8833 -73.8000 217° Southwest 152 175 2,300 -800 Descending New TRACON
Sun 18:55:09 40.8500 -73.8167 201° Southwest 138 159 1,500 -750 Descending New TRACON
Sun 18:56:09 40.8167 -73.8500 217° Southwest 132 152 800 -700 Descending New TRACON
Sun 18:58:00 40.7772 -73.8726 180° South  Level Estimated
Sun 19:05:00 40.7772 -73.8726 180° South  Level Estimated
Sun 19:06:00 40.7772 -73.8726 180° South  Level Estimated

Login

Don't have an account? Register now (free) for customized features, flight alerts, and more!